createdAt,value
2018-04-19T00:02:10.241Z,102996.64
2018-04-19T00:04:38.921Z,103004.31
2018-04-19T00:07:07.284Z,103002.97
2018-04-19T00:09:35.642Z,103001.03
2018-04-19T00:12:03.975Z,102998.19
2018-04-19T00:14:32.341Z,102995.84
2018-04-19T00:17:01.029Z,103001.92
2018-04-19T00:19:29.352Z,102994.25
2018-04-19T00:21:57.796Z,102991.67
2018-04-19T00:24:26.142Z,102993.61
2018-04-19T00:26:54.484Z,102992.82
2018-04-19T00:29:22.855Z,102982.72
2018-04-19T00:31:51.973Z,102974.66
2018-04-19T00:34:20.302Z,102979.85
2018-04-19T00:36:48.847Z,102982.63
2018-04-19T00:39:17.201Z,102983.36
2018-04-19T00:41:45.531Z,102975.66
2018-04-19T00:44:13.935Z,102969.63
2018-04-19T00:46:43.025Z,102978.64
2018-04-19T00:49:11.332Z,102984.93
2018-04-19T00:51:40.461Z,102971.58
2018-04-19T00:54:08.817Z,102972.91
2018-04-19T00:56:37.161Z,102971.14
2018-04-19T00:59:05.620Z,102972.39
2018-04-19T01:01:33.970Z,102969.14
2018-04-19T01:04:02.276Z,102965.18
2018-04-19T01:06:30.806Z,102969.31
2018-04-19T01:08:59.153Z,102968.16
2018-04-19T01:11:27.500Z,102969.92
2018-04-19T01:13:55.872Z,102956.89
2018-04-19T01:16:24.982Z,102959.94
2018-04-19T01:18:53.290Z,102953.22
2018-04-19T01:21:21.650Z,102949.13
2018-04-19T01:23:49.993Z,102950.30
2018-04-19T01:26:18.332Z,102950.53
2018-04-19T01:28:47.659Z,102954.59
2018-04-19T01:31:16.008Z,102953.85
2018-04-19T01:33:44.355Z,102953.25
2018-04-19T01:36:25.493Z,102956.96
2018-04-19T01:38:53.873Z,102956.80
2018-04-19T01:41:22.219Z,102954.71
2018-04-19T01:43:50.696Z,102949.50
2018-04-19T01:46:19.056Z,102951.19
2018-04-19T01:48:47.391Z,102956.98
2018-04-19T01:51:16.495Z,102948.91
2018-04-19T01:53:44.812Z,102951.52
2018-04-19T01:56:13.300Z,102950.54
2018-04-19T01:58:41.691Z,102948.20
2018-04-19T02:01:10.040Z,102943.95
2018-04-19T02:03:38.384Z,102944.88
2018-04-19T02:06:06.822Z,102948.41
2018-04-19T02:08:35.199Z,102949.56
2018-04-19T02:11:03.557Z,102949.72
2018-04-19T02:13:31.930Z,102946.98
2018-04-19T02:16:00.261Z,102951.73
2018-04-19T02:18:28.623Z,102943.02
2018-04-19T02:20:56.995Z,102948.92
2018-04-19T02:23:25.349Z,102947.42
2018-04-19T02:25:53.684Z,102936.92
2018-04-19T02:28:23.026Z,102940.30
2018-04-19T02:30:51.377Z,102938.94
2018-04-19T02:33:20.497Z,102936.34
2018-04-19T02:35:48.958Z,102936.41
2018-04-19T02:38:17.234Z,102942.80
2018-04-19T02:40:45.585Z,102936.13
2018-04-19T02:43:13.940Z,102938.73
2018-04-19T02:45:42.295Z,102928.30
2018-04-19T02:48:10.669Z,102925.71
2018-04-19T02:50:39.548Z,102934.20
2018-04-19T02:53:07.895Z,102930.39
2018-04-19T02:55:36.233Z,102925.00
2018-04-19T02:58:04.608Z,102930.75
2018-04-19T03:00:32.953Z,102928.59
2018-04-19T03:03:02.050Z,102933.77
2018-04-19T03:05:31.186Z,102937.08
2018-04-19T03:07:59.543Z,102937.22
2018-04-19T03:10:27.934Z,102930.75
2018-04-19T03:12:56.596Z,102924.06
2018-04-19T03:15:25.706Z,102928.45
2018-04-19T03:17:54.092Z,102933.12
2018-04-19T03:20:22.461Z,102923.71
2018-04-19T03:22:50.785Z,102926.02
2018-04-19T03:25:19.155Z,102928.31
2018-04-19T03:27:47.514Z,102931.05
2018-04-19T03:30:15.819Z,102932.27
2018-04-19T03:32:44.155Z,102928.53
2018-04-19T03:35:12.797Z,102925.27
2018-04-19T03:37:41.133Z,102930.75
2018-04-19T03:40:09.473Z,102922.13
2018-04-19T03:42:37.866Z,102924.06
2018-04-19T03:45:06.211Z,102922.91
2018-04-19T03:47:34.560Z,102932.05
2018-04-19T03:50:02.912Z,102938.86
2018-04-19T03:52:31.350Z,102927.29
2018-04-19T03:54:59.663Z,102931.43
2018-04-19T03:57:29.100Z,102938.93
2018-04-19T03:59:57.430Z,102930.93
2018-04-19T04:02:25.752Z,102932.59
2018-04-19T04:04:54.170Z,102928.41
2018-04-19T04:07:22.488Z,102923.91
2018-04-19T04:09:50.812Z,102934.50
2018-04-19T04:12:19.190Z,102927.48
2018-04-19T04:14:47.514Z,102925.17
2018-04-19T04:17:33.641Z,102927.41
2018-04-19T04:20:19.952Z,102924.08
2018-04-19T04:23:06.245Z,102925.58
2018-04-19T04:25:34.584Z,102923.12
2018-04-19T04:28:03.692Z,102926.95
2018-04-19T04:30:32.045Z,102926.83
2018-04-19T04:33:00.364Z,102932.28
2018-04-19T04:35:28.671Z,102924.31
2018-04-19T04:37:57.234Z,102931.69
2018-04-19T04:40:25.579Z,102926.35
2018-04-19T04:42:58.204Z,102932.70
2018-04-19T04:45:26.840Z,102940.21
2018-04-19T04:47:55.242Z,102934.09
2018-04-19T04:50:23.577Z,102931.77
2018-04-19T04:52:51.962Z,102930.63
2018-04-19T04:55:20.333Z,102932.22
2018-04-19T04:57:50.212Z,102937.92
2018-04-19T05:00:19.073Z,102940.65
2018-04-19T05:02:47.519Z,102935.52
2018-04-19T05:05:15.876Z,102934.89
2018-04-19T05:07:44.277Z,102931.39
2018-04-19T05:10:12.594Z,102936.93
2018-04-19T05:12:41.721Z,102933.48
2018-04-19T05:15:10.162Z,102925.66
2018-04-19T05:17:38.549Z,102922.34
2018-04-19T05:20:07.871Z,102933.84
2018-04-19T05:22:36.746Z,102929.81
2018-04-19T05:25:05.124Z,102929.58
2018-04-19T05:27:34.255Z,102923.67
2018-04-19T05:30:02.637Z,102931.14
2018-04-19T05:32:31.007Z,102937.42
2018-04-19T05:34:59.370Z,102937.88
2018-04-19T05:37:27.766Z,102935.09
2018-04-19T05:39:56.120Z,102933.22
2018-04-19T05:42:24.491Z,102926.38
2018-04-19T05:44:53.924Z,102933.11
2018-04-19T05:47:23.022Z,102934.39
2018-04-19T05:49:51.369Z,102927.55
2018-04-19T05:52:20.495Z,102927.94
2018-04-19T05:54:48.830Z,102926.15
2018-04-19T05:57:17.143Z,102926.50
2018-04-19T05:59:45.504Z,102933.88
2018-04-19T06:02:14.599Z,102925.22
2018-04-19T06:04:43.709Z,102929.83
2018-04-19T06:07:13.041Z,102927.73
2018-04-19T06:09:41.520Z,102932.39
2018-04-19T06:12:09.873Z,102929.71
2018-04-19T06:14:38.281Z,102922.58
2018-04-19T06:17:06.643Z,102921.52
2018-04-19T06:19:34.981Z,102927.67
2018-04-19T06:22:03.462Z,102925.73
2018-04-19T06:24:32.594Z,102918.48
2018-04-19T06:27:00.924Z,102934.67
2018-04-19T06:29:29.498Z,102929.32
2018-04-19T06:31:57.839Z,102933.39
2018-04-19T06:34:26.176Z,102935.55
2018-04-19T06:36:54.571Z,102934.05
2018-04-19T06:39:23.729Z,102934.70
2018-04-19T06:41:52.047Z,102931.80
2018-04-19T06:44:20.405Z,102931.91
2018-04-19T06:46:48.773Z,102929.06
2018-04-19T06:49:17.095Z,102936.28
2018-04-19T06:51:45.683Z,102936.80
2018-04-19T06:54:14.023Z,102928.78
2018-04-19T06:56:42.387Z,102927.02
2018-04-19T06:59:10.809Z,102939.58
2018-04-19T07:01:39.120Z,102940.58
2018-04-19T07:04:07.456Z,102938.84
2018-04-19T07:06:35.850Z,102933.72
2018-04-19T07:09:04.196Z,102931.53
2018-04-19T07:11:32.546Z,102933.60
2018-04-19T07:14:01.308Z,102935.58
2018-04-19T07:16:29.625Z,102934.80
2018-04-19T07:18:57.958Z,102932.02
2018-04-19T07:21:27.090Z,102938.58
2018-04-19T07:23:55.415Z,102931.49
2018-04-19T07:26:23.742Z,102934.56
2018-04-19T07:28:52.122Z,102934.98
2018-04-19T07:31:20.485Z,102931.11
2018-04-19T07:33:48.843Z,102936.34
2018-04-19T07:36:18.135Z,102933.69
2018-04-19T07:38:47.239Z,102932.75
2018-04-19T07:41:16.446Z,102937.06
2018-04-19T07:43:45.584Z,102935.32
2018-04-19T07:46:13.915Z,102937.21
2018-04-19T07:48:43.033Z,102938.13
2018-04-19T07:51:11.381Z,102936.34
2018-04-19T07:53:39.707Z,102934.02
2018-04-19T07:56:08.064Z,102928.60
2018-04-19T07:58:36.859Z,102927.16
2018-04-19T08:01:05.206Z,102925.66
2018-04-19T08:03:34.314Z,102928.84
2018-04-19T08:06:03.441Z,102927.76
2018-04-19T08:08:31.746Z,102927.67
2018-04-19T08:11:00.086Z,102928.97
2018-04-19T08:13:28.469Z,102929.93
2018-04-19T08:15:56.826Z,102929.33
2018-04-19T08:18:25.222Z,102925.42
2018-04-19T08:20:54.186Z,102927.89
2018-04-19T08:23:22.543Z,102927.07
2018-04-19T08:25:50.922Z,102926.96
2018-04-19T08:28:19.280Z,102928.39
2018-04-19T08:30:47.644Z,102933.91
2018-04-19T08:33:15.956Z,102919.44
2018-04-19T08:35:44.396Z,102925.85
2018-04-19T08:38:12.724Z,102929.59
2018-04-19T08:40:41.077Z,102926.91
2018-04-19T08:43:09.938Z,102930.92
2018-04-19T08:45:38.478Z,102926.50
2018-04-19T08:48:07.649Z,102926.95
2018-04-19T08:50:36.073Z,102932.62
2018-04-19T08:53:05.218Z,102924.50
2018-04-19T08:55:33.601Z,102925.67
2018-04-19T08:58:01.952Z,102923.66
2018-04-19T09:00:31.039Z,102925.16
2018-04-19T09:03:00.145Z,102919.64
2018-04-19T09:05:29.344Z,102925.05
2018-04-19T09:07:57.694Z,102924.08
2018-04-19T09:10:26.045Z,102917.66
2018-04-19T09:12:54.383Z,102924.11
2018-04-19T09:15:22.726Z,102917.74
2018-04-19T09:17:51.061Z,102914.48
2018-04-19T09:20:19.464Z,102916.85
2018-04-19T09:22:47.813Z,102921.25
2018-04-19T09:25:16.167Z,102921.20
2018-04-19T09:27:44.869Z,102919.92
2018-04-19T09:30:13.241Z,102921.06
2018-04-19T09:32:42.329Z,102912.29
2018-04-19T09:35:11.440Z,102917.50
2018-04-19T09:37:39.768Z,102914.77
2018-04-19T09:40:08.120Z,102917.44
2018-04-19T09:42:36.528Z,102913.95
2018-04-19T09:45:04.882Z,102913.58
2018-04-19T09:47:33.228Z,102917.26
2018-04-19T09:50:02.506Z,102915.98
2018-04-19T09:52:31.607Z,102911.16
2018-04-19T09:55:00.696Z,102902.64
2018-04-19T09:57:29.057Z,102901.71
2018-04-19T09:59:57.413Z,102898.78
2018-04-19T10:02:29.620Z,102900.50
2018-04-19T10:05:02.772Z,102903.49
2018-04-19T10:07:31.217Z,102893.88
2018-04-19T10:10:00.362Z,102896.98
2018-04-19T10:12:28.715Z,102893.59
2018-04-19T10:14:57.092Z,102897.61
2018-04-19T10:17:25.439Z,102891.05
2018-04-19T10:19:54.536Z,102889.74
2018-04-19T10:22:22.921Z,102892.12
2018-04-19T10:24:51.493Z,102894.55
2018-04-19T10:27:19.830Z,102888.87
2018-04-19T10:29:48.275Z,102883.41
2018-04-19T10:32:17.387Z,102887.09
2018-04-19T10:34:45.719Z,102886.42
2018-04-19T10:37:14.069Z,102881.97
2018-04-19T10:39:42.391Z,102880.80
2018-04-19T10:42:10.726Z,102873.77
2018-04-19T10:44:39.123Z,102877.73
2018-04-19T10:47:07.507Z,102870.77
2018-04-19T10:49:35.864Z,102862.80
2018-04-19T10:52:04.506Z,102864.58
2018-04-19T10:54:33.607Z,102865.62
2018-04-19T10:57:01.982Z,102861.81
2018-04-19T10:59:31.105Z,102862.88
2018-04-19T11:01:59.481Z,102850.70
2018-04-19T11:04:27.843Z,102856.21
2018-04-19T11:06:56.246Z,102852.27
2018-04-19T11:09:24.591Z,102844.10
2018-04-19T11:11:53.692Z,102840.62
2018-04-19T11:14:23.295Z,102844.77
2018-04-19T11:16:51.666Z,102842.39
2018-04-19T11:19:20.798Z,102835.86
2018-04-19T11:21:49.176Z,102834.61
2018-04-19T11:24:18.272Z,102839.00
2018-04-19T11:26:46.687Z,102828.77
2018-04-19T11:29:15.029Z,102827.91
2018-04-19T11:31:43.370Z,102837.45
2018-04-19T11:34:11.725Z,102825.56
2018-04-19T11:36:40.492Z,102819.80
2018-04-19T11:39:08.808Z,102813.20
2018-04-19T11:41:37.148Z,102809.95
2018-04-19T11:44:05.556Z,102810.48
2018-04-19T11:46:33.901Z,102805.61
2018-04-19T11:49:02.232Z,102812.39
2018-04-19T11:51:30.580Z,102807.31
2018-04-19T11:53:58.906Z,102806.66
2018-04-19T11:56:28.043Z,102809.77
2018-04-19T11:58:56.525Z,102808.20
2018-04-19T12:01:24.880Z,102798.19
2018-04-19T12:03:53.184Z,102801.94
2018-04-19T12:06:21.546Z,102797.41
2018-04-19T12:08:49.869Z,102804.12
2018-04-19T12:11:18.220Z,102806.44
2018-04-19T12:13:46.632Z,102804.59
2018-04-19T12:16:14.968Z,102795.55
2018-04-19T12:18:43.322Z,102787.27
2018-04-19T12:21:12.551Z,102798.84
2018-04-19T12:23:40.904Z,102791.77
2018-04-19T12:26:10.025Z,102792.77
2018-04-19T12:28:38.425Z,102786.97
2018-04-19T12:31:06.740Z,102791.08
2018-04-19T12:33:35.081Z,102785.50
2018-04-19T12:36:03.503Z,102778.56
2018-04-19T12:38:32.592Z,102786.13
2018-04-19T12:41:00.920Z,102787.09
2018-04-19T12:43:29.707Z,102780.73
2018-04-19T12:45:58.013Z,102775.03
2018-04-19T12:48:27.122Z,102777.86
2018-04-19T12:50:55.478Z,102771.44
2018-04-19T12:53:23.813Z,102764.55
2018-04-19T12:55:52.177Z,102764.30
2018-04-19T12:58:21.313Z,102759.55
2018-04-19T13:00:49.707Z,102753.43
2018-04-19T13:03:18.012Z,102760.30
2018-04-19T13:05:46.535Z,102756.48
2018-04-19T13:08:15.638Z,102755.79
2018-04-19T13:10:43.986Z,102752.37
2018-04-19T13:13:12.349Z,102749.41
2018-04-19T13:15:40.698Z,102741.78
2018-04-19T13:18:09.089Z,102746.06
2018-04-19T13:20:37.457Z,102740.95
2018-04-19T13:23:05.806Z,102738.84
2018-04-19T13:25:34.144Z,102735.25
2018-04-19T13:28:02.984Z,102725.56
2018-04-19T13:30:31.665Z,102729.20
2018-04-19T13:33:00.021Z,102722.94
2018-04-19T13:35:29.187Z,102727.50
2018-04-19T13:37:57.524Z,102723.73
2018-04-19T13:40:26.633Z,102724.59
2018-04-19T13:42:54.997Z,102718.95
2018-04-19T13:45:23.339Z,102724.50
2018-04-19T13:47:51.659Z,102723.00
2018-04-19T13:50:20.538Z,102720.05
2018-04-19T13:52:49.690Z,102714.16
2018-04-19T13:55:18.054Z,102716.39
2018-04-19T13:57:46.439Z,102706.52
2018-04-19T14:00:14.778Z,102712.95
2018-04-19T14:02:43.878Z,102708.88
2018-04-19T14:05:13.009Z,102711.02
2018-04-19T14:07:41.373Z,102702.22
2018-04-19T14:10:09.681Z,102698.88
2018-04-19T14:12:38.554Z,102686.67
2018-04-19T14:15:06.928Z,102689.61
2018-04-19T14:17:35.330Z,102683.52
2018-04-19T14:20:03.717Z,102678.78
2018-04-19T14:22:32.080Z,102673.39
2018-04-19T14:25:00.439Z,102675.30
2018-04-19T14:27:28.796Z,102675.94
2018-04-19T14:29:57.918Z,102685.02
2018-04-19T14:32:26.568Z,102682.03
2018-04-19T14:34:55.213Z,102676.56
2018-04-19T14:37:23.557Z,102681.69
2018-04-19T14:39:51.899Z,102674.27
2018-04-19T14:42:20.312Z,102670.87
2018-04-19T14:44:48.663Z,102663.03
2018-04-19T14:47:17.757Z,102668.73
2018-04-19T14:49:46.153Z,102670.44
2018-04-19T14:52:14.466Z,102662.16
2018-04-19T14:54:42.755Z,102655.56
2018-04-19T14:57:11.194Z,102663.70
2018-04-19T14:59:39.533Z,102658.61
2018-04-19T15:02:07.884Z,102663.20
2018-04-19T15:04:36.285Z,102658.68
2018-04-19T15:07:04.617Z,102649.24
2018-04-19T15:09:32.965Z,102656.43
2018-04-19T15:12:01.343Z,102655.59
2018-04-19T15:14:29.693Z,102647.52
2018-04-19T15:16:58.022Z,102649.91
2018-04-19T15:19:26.921Z,102650.10
2018-04-19T15:21:55.249Z,102653.45
2018-04-19T15:24:23.582Z,102645.53
2018-04-19T15:26:51.990Z,102652.20
2018-04-19T15:29:20.305Z,102646.38
2018-04-19T15:31:48.672Z,102644.61
2018-04-19T15:34:17.076Z,102648.20
2018-04-19T15:36:46.166Z,102646.89
2018-04-19T15:39:14.514Z,102642.48
2018-04-19T15:41:43.291Z,102642.20
2018-04-19T15:44:12.362Z,102643.03
2018-04-19T15:46:40.723Z,102641.66
2018-04-19T15:49:09.867Z,102639.40
2018-04-19T15:51:38.189Z,102639.33
2018-04-19T15:54:07.285Z,102636.70
2018-04-19T15:56:35.711Z,102631.88
2018-04-19T15:59:04.072Z,102624.05
2018-04-19T16:01:32.443Z,102620.69
2018-04-19T16:04:01.691Z,102619.06
2018-04-19T16:06:30.059Z,102616.75
2018-04-19T16:08:58.400Z,102619.13
2018-04-19T16:11:26.902Z,102628.25
2018-04-19T16:13:55.227Z,102619.27
2018-04-19T16:16:23.569Z,102617.42
2018-04-19T16:18:52.143Z,102621.55
2018-04-19T16:21:20.495Z,102621.64
2018-04-19T16:23:49.630Z,102608.27
2018-04-19T16:26:18.240Z,102609.77
2018-04-19T16:28:48.618Z,102605.95
2018-04-19T16:31:14.937Z,102609.67
2018-04-19T16:33:43.305Z,102609.53
2018-04-19T16:36:11.641Z,102606.77
2018-04-19T16:38:39.993Z,102602.55
2018-04-19T16:41:08.376Z,102605.48
2018-04-19T16:43:36.711Z,102604.55
2018-04-19T16:46:05.024Z,102593.50
2018-04-19T16:48:33.487Z,102591.19
2018-04-19T16:51:01.830Z,102592.77
2018-04-19T16:53:30.223Z,102594.17
2018-04-19T16:55:58.607Z,102593.13
2018-04-19T16:58:27.719Z,102590.30
2018-04-19T17:00:56.810Z,102589.45
2018-04-19T17:03:25.178Z,102598.03
2018-04-19T17:05:53.621Z,102590.37
2018-04-19T17:08:21.937Z,102586.84
2018-04-19T17:10:50.470Z,102593.80
2018-04-19T17:13:18.808Z,102586.17
2018-04-19T17:15:47.921Z,102592.22
2018-04-19T17:18:17.038Z,102587.33
2018-04-19T17:20:45.388Z,102586.64
2018-04-19T17:23:14.511Z,102584.84
2018-04-19T17:25:42.953Z,102584.59
2018-04-19T17:28:11.316Z,102587.91
2018-04-19T17:30:39.686Z,102587.42
2018-04-19T17:33:08.249Z,102582.12
2018-04-19T17:35:37.021Z,102586.98
2018-04-19T17:38:05.396Z,102579.37
2018-04-19T17:40:33.773Z,102577.30
2018-04-19T17:43:02.932Z,102576.91
2018-04-19T17:45:31.302Z,102584.16
2018-04-19T17:47:59.749Z,102579.45
2018-04-19T17:50:28.840Z,102573.75
2018-04-19T17:52:57.177Z,102576.87
2018-04-19T17:55:26.791Z,102578.86
2018-04-19T17:57:55.152Z,102575.98
2018-04-19T18:00:23.510Z,102577.09
2018-04-19T18:02:51.953Z,102578.50
2018-04-19T18:05:21.094Z,102573.77
2018-04-19T18:07:49.428Z,102579.98
2018-04-19T18:10:17.820Z,102574.86
2018-04-19T18:12:46.226Z,102575.91
2018-04-19T18:15:14.600Z,102568.71
2018-04-19T18:17:43.075Z,102575.87
2018-04-19T18:20:11.479Z,102572.74
2018-04-19T18:22:39.813Z,102585.16
2018-04-19T18:25:08.266Z,102580.06
2018-04-19T18:27:36.576Z,102584.93
2018-04-19T18:30:08.923Z,102579.02
2018-04-19T18:32:37.385Z,102582.64
2018-04-19T18:35:05.803Z,102578.95
2018-04-19T18:37:34.467Z,102578.52
2018-04-19T18:40:02.946Z,102581.62
2018-04-19T18:42:31.300Z,102588.45
2018-04-19T18:44:59.634Z,102583.23
2018-04-19T18:47:27.976Z,102582.92
2018-04-19T18:49:56.334Z,102587.30
2018-04-19T18:52:25.443Z,102587.41
2018-04-19T18:54:53.862Z,102586.66
2018-04-19T18:57:22.283Z,102586.02
2018-04-19T18:59:50.665Z,102591.77
2018-04-19T19:02:19.141Z,102595.59
2018-04-19T19:04:47.505Z,102596.57
2018-04-19T19:07:15.843Z,102594.02
2018-04-19T19:09:44.268Z,102594.33
2018-04-19T19:12:12.620Z,102595.06
2018-04-19T19:14:40.975Z,102592.78
2018-04-19T19:17:26.972Z,102592.34
2018-04-19T19:20:14.071Z,102595.62
2018-04-19T19:22:42.454Z,102585.70
2018-04-19T19:25:10.779Z,102592.38
2018-04-19T19:27:40.261Z,102590.22
2018-04-19T19:30:09.579Z,102590.69
2018-04-19T19:32:38.533Z,102586.62
2018-04-19T19:35:08.307Z,102583.94
2018-04-19T19:37:38.016Z,102587.22
2018-04-19T19:40:07.210Z,102590.08
2018-04-19T19:42:35.604Z,102591.45
2018-04-19T19:45:04.250Z,102589.82
2018-04-19T19:47:32.635Z,102584.92
2018-04-19T19:50:01.720Z,102584.27
2018-04-19T19:52:30.837Z,102580.17
2018-04-19T19:55:00.335Z,102582.89
2018-04-19T19:57:28.736Z,102581.36
2018-04-19T19:59:57.288Z,102584.27
2018-04-19T20:02:26.453Z,102584.29
2018-04-19T20:04:54.832Z,102588.69
2018-04-19T20:07:23.221Z,102589.00
2018-04-19T20:09:51.628Z,102585.03
2018-04-19T20:12:20.768Z,102584.22
2018-04-19T20:14:49.196Z,102584.58
2018-04-19T20:17:17.513Z,102580.80
2018-04-19T20:19:45.889Z,102577.38
2018-04-19T20:22:14.775Z,102582.45
2018-04-19T20:24:43.885Z,102579.27
2018-04-19T20:27:12.296Z,102578.98
2018-04-19T20:29:40.663Z,102576.02
2018-04-19T20:32:09.020Z,102575.39
2018-04-19T20:34:37.417Z,102576.91
2018-04-19T20:37:05.759Z,102574.21
2018-04-19T20:39:34.886Z,102571.78
2018-04-19T20:42:03.263Z,102573.03
2018-04-19T20:44:31.908Z,102571.89
2018-04-19T20:47:00.278Z,102579.06
2018-04-19T20:49:29.440Z,102571.06
2018-04-19T20:51:57.838Z,102566.56
2018-04-19T20:54:26.193Z,102564.29
2018-04-19T20:56:54.532Z,102564.41
2018-04-19T20:59:22.896Z,102560.34
2018-04-19T21:01:51.255Z,102558.30
2018-04-19T21:04:19.611Z,102557.55
2018-04-19T21:06:48.496Z,102556.38
2018-04-19T21:09:16.801Z,102562.64
2018-04-19T21:11:45.149Z,102557.41
2018-04-19T21:14:13.567Z,102559.41
2018-04-19T21:16:41.934Z,102552.75
2018-04-19T21:19:10.291Z,102553.17
2018-04-19T21:21:39.419Z,102547.19
2018-04-19T21:24:08.514Z,102550.66
2018-04-19T21:26:36.842Z,102546.88
2018-04-19T21:29:05.626Z,102553.11
2018-04-19T21:31:34.734Z,102544.14
2018-04-19T21:34:03.070Z,102545.28
2018-04-19T21:36:31.457Z,102544.53
2018-04-19T21:39:00.284Z,102539.98
2018-04-19T21:41:28.672Z,102537.92
2018-04-19T21:43:57.854Z,102541.36
2018-04-19T21:46:26.235Z,102534.84
2018-04-19T21:48:54.590Z,102530.21
2018-04-19T21:51:23.827Z,102535.73
2018-04-19T21:53:52.186Z,102533.55
2018-04-19T21:56:21.339Z,102529.90
2018-04-19T21:58:49.771Z,102523.27
2018-04-19T22:01:18.120Z,102523.38
2018-04-19T22:03:47.234Z,102514.78
2018-04-19T22:06:16.346Z,102513.12
2018-04-19T22:08:44.736Z,102516.17
2018-04-19T22:11:13.073Z,102517.88
2018-04-19T22:13:41.646Z,102517.84
2018-04-19T22:16:10.030Z,102520.45
2018-04-19T22:18:38.335Z,102513.09
2018-04-19T22:21:06.722Z,102512.09
2018-04-19T22:23:35.823Z,102504.45
2018-04-19T22:26:04.185Z,102502.16
2018-04-19T22:28:33.336Z,102503.11
2018-04-19T22:31:01.680Z,102503.45
2018-04-19T22:33:30.023Z,102496.30
2018-04-19T22:35:58.436Z,102502.00
2018-04-19T22:38:26.796Z,102502.02
2018-04-19T22:40:55.584Z,102497.55
2018-04-19T22:43:24.709Z,102495.05
2018-04-19T22:45:53.055Z,102493.16
2018-04-19T22:48:21.386Z,102488.27
2018-04-19T22:50:49.753Z,102488.77
2018-04-19T22:53:18.098Z,102482.31
2018-04-19T22:55:46.452Z,102487.02
2018-04-19T22:58:14.880Z,102484.44
2018-04-19T23:00:43.212Z,102480.23
2018-04-19T23:03:12.325Z,102480.07
2018-04-19T23:05:40.703Z,102479.91
2018-04-19T23:08:09.017Z,102477.48
2018-04-19T23:10:37.337Z,102475.25
2018-04-19T23:13:05.666Z,102477.29
2018-04-19T23:15:34.734Z,102476.19
2018-04-19T23:18:03.824Z,102466.72
2018-04-19T23:20:33.139Z,102465.32
2018-04-19T23:23:02.252Z,102465.63
2018-04-19T23:25:30.695Z,102459.95
2018-04-19T23:27:59.120Z,102457.77
2018-04-19T23:30:27.401Z,102447.13
2018-04-19T23:32:55.715Z,102451.08
2018-04-19T23:35:24.061Z,102454.34
2018-04-19T23:37:52.363Z,102448.31
2018-04-19T23:40:20.769Z,102451.70
2018-04-19T23:42:49.544Z,102453.58
2018-04-19T23:45:17.882Z,102444.25
2018-04-19T23:47:46.975Z,102447.98
2018-04-19T23:50:15.330Z,102445.47
2018-04-19T23:52:44.405Z,102442.50
2018-04-19T23:55:12.716Z,102444.60
2018-04-19T23:57:41.874Z,102446.73
